| time (UTC) | temp F | wind direction | speed MPH | gust MPH | rain 1hr in | rain 24hr in | rain mn in | humidity % | barometer mb |
| 20260509174519 | 28 | 70 | 0.0 | 0.0 | 0.00 | 0.00 | 0.00 | 85 | 1028.3 |
| 20260509173023 | 29 | 70 | 0.0 | 0.0 | 0.00 | 0.00 | 0.00 | 85 | 1028.2 |
| 20260509171519 | 29 | 70 | 0.0 | 0.0 | 0.00 | 0.00 | 0.00 | 85 | 1028.2 |
| 20260509170014 | 29 | 70 | 0.0 | 0.0 | 0.00 | 0.00 | 0.00 | 86 | 1028.3 |
| 20260509164513 | 29 | 70 | 0.0 | 0.0 | 0.00 | 0.00 | 0.00 | 86 | 1028.3 |
| 20260509163010 | 29 | 70 | 0.0 | 0.0 | 0.00 | 0.00 | 0.00 | 86 | 1028.3 |
| 20260509161509 | 29 | 70 | 0.0 | 0.0 | 0.00 | 0.00 | 0.00 | 86 | 1028.3 |
| 20260509160009 | 30 | 70 | 0.0 | 0.0 | 0.00 | 0.00 | 0.00 | 86 | 1028.3 |
| 20260509154505 | 30 | 70 | 0.0 | 0.0 | 0.00 | 0.00 | 0.00 | 86 | 1028.3 |
| 20260509153003 | 30 | 70 | 0.0 | 0.0 | 0.00 | 0.00 | 0.00 | 86 | 1028.2 |
| 20260509151503 | 31 | 70 | 0.0 | 0.0 | 0.00 | 0.00 | 0.00 | 86 | 1028.3 |
| 20260509150059 | 31 | 70 | 0.0 | 0.0 | 0.00 | 0.00 | 0.00 | 86 | 1028.3 |
| 20260509144557 | 31 | 70 | 0.0 | 0.0 | 0.00 | 0.00 | 0.00 | 86 | 1028.3 |
| 20260509143058 | 31 | 70 | 0.0 | 0.0 | 0.00 | 0.00 | 0.00 | 86 | 1028.4 |
| 20260509141606 | 32 | 70 | 0.0 | 0.0 | 0.00 | 0.00 | 0.00 | 86 | 1028.3 |
| 20260509140058 | 32 | 70 | 0.0 | 0.0 | 0.00 | 0.00 | 0.00 | 86 | 1028.3 |
| 20260509134558 | 32 | 70 | 0.0 | 0.0 | 0.00 | 0.00 | 0.00 | 87 | 1028.4 |
| 20260509133051 | 32 | 70 | 0.0 | 0.0 | 0.00 | 0.00 | 0.00 | 88 | 1028.3 |
| 20260509131550 | 33 | 70 | 0.0 | 0.0 | 0.00 | 0.00 | 0.00 | 88 | 1028.2 |
| 20260509130052 | 33 | 70 | 0.0 | 0.0 | 0.00 | 0.00 | 0.00 | 88 | 1028.1 |
| 20260509124550 | 33 | 70 | 0.0 | 0.0 | 0.00 | 0.00 | 0.00 | 88 | 1028.1 |
| 20260509123052 | 34 | 70 | 0.0 | 0.0 | 0.00 | 0.00 | 0.00 | 88 | 1028.1 |
| 20260509121550 | 34 | 70 | 0.0 | 0.0 | 0.00 | 0.00 | 0.00 | 88 | 1028.1 |
| 20260509120053 | 35 | 70 | 0.0 | 0.0 | 0.00 | 0.00 | 0.00 | 88 | 1028.2 |
| 20260509114547 | 35 | 70 | 0.0 | 0.0 | 0.00 | 0.00 | 0.00 | 88 | 1028.1 |
| 20260509113046 | 36 | 70 | 0.0 | 0.0 | 0.00 | 0.00 | 0.00 | 87 | 1028.1 |
| 20260509111551 | 36 | 70 | 0.0 | 0.0 | 0.00 | 0.00 | 0.00 | 88 | 1028.0 |
| 20260509110044 | 37 | 70 | 0.0 | 0.0 | 0.00 | 0.00 | 0.00 | 88 | 1028.0 |
| 20260509104545 | 37 | 70 | 0.0 | 0.0 | 0.00 | 0.00 | 0.00 | 86 | 1028.0 |
| 20260509103044 | 38 | 70 | 0.0 | 0.0 | 0.00 | 0.00 | 0.00 | 85 | 1027.9 |
| 20260509101552 | 39 | 70 | 0.0 | 0.0 | 0.00 | 0.00 | 0.00 | 84 | 1027.8 |
| 20260509100043 | 39 | 70 | 0.0 | 0.0 | 0.00 | 0.00 | 0.00 | 84 | 1027.6 |
| 20260509094544 | 41 | 70 | 0.0 | 0.0 | 0.00 | 0.00 | 0.00 | 84 | 1027.6 |
| 20260509093052 | 42 | 70 | 0.0 | 0.0 | 0.00 | 0.00 | 0.00 | 82 | 1027.4 |
| 20260509091541 | 43 | 70 | 0.0 | 0.0 | 0.00 | 0.00 | 0.00 | 80 | 1027.1 |
| 20260509090041 | 45 | 70 | 0.0 | 0.0 | 0.00 | 0.00 | 0.00 | 78 | 1027.0 |
| 20260509084549 | 47 | 70 | 0.0 | 0.0 | 0.00 | 0.00 | 0.00 | 76 | 1026.8 |
| 20260509083039 | 49 | 70 | 0.0 | 0.0 | 0.00 | 0.00 | 0.00 | 73 | 1026.6 |
| 20260509081542 | 50 | 70 | 0.0 | 0.0 | 0.00 | 0.00 | 0.00 | 72 | 1026.4 |
| 20260509080050 | 52 | 70 | 0.0 | 0.0 | 0.00 | 0.00 | 0.00 | 71 | 1026.2 |
| 20260509074538 | 54 | 71 | 0.0 | 0.0 | 0.00 | 0.00 | 0.00 | 68 | 1025.9 |
| 20260509073039 | 57 | 71 | 0.0 | 0.0 | 0.00 | 0.00 | 0.00 | 63 | 1025.6 |
| 20260509071536 | 59 | 71 | 0.0 | 0.0 | 0.00 | 0.00 | 0.00 | 61 | 1025.4 |
| 20260509070039 | 60 | 41 | 0.0 | 1.0 | 0.00 | 0.00 | 0.00 | 59 | 1025.4 |
| 20260509064535 | 61 | 54 | 0.0 | 5.0 | 0.00 | 0.00 | 0.00 | 58 | 1025.2 |
| 20260509063034 | 62 | 353 | 0.0 | 0.0 | 0.00 | 0.00 | 0.00 | 56 | 1025.0 |
| 20260509061534 | 63 | 75 | 0.0 | 0.0 | 0.00 | 0.00 | 0.00 | 55 | 1024.7 |
| 20260509060034 | 64 | 325 | 0.0 | 0.0 | 0.00 | 0.00 | 0.00 | 53 | 1024.8 |
| 20260509054538 | 66 | 42 | 0.0 | 2.0 | 0.00 | 0.00 | 0.00 | 51 | 1024.7 |
| 20260509053038 | 66 | 357 | 0.0 | 5.0 | 0.00 | 0.00 | 0.00 | 51 | 1024.6 |
| 20260509051537 | 66 | 142 | 0.0 | 0.0 | 0.00 | 0.00 | 0.00 | 48 | 1024.6 |
| 20260509050030 | 66 | 165 | 0.0 | 0.0 | 0.00 | 0.00 | 0.00 | 47 | 1024.6 |
| 20260509044528 | 66 | 163 | 0.0 | 0.0 | 0.00 | 0.00 | 0.00 | 48 | 1024.7 |
| 20260509043027 | 66 | 288 | 0.0 | 0.0 | 0.00 | 0.00 | 0.00 | 48 | 1024.6 |
| 20260509041525 | 65 | 266 | 0.0 | 0.0 | 0.00 | 0.00 | 0.00 | 49 | 1024.6 |
| 20260509040024 | 66 | 85 | 0.0 | 0.0 | 0.00 | 0.00 | 0.00 | 49 | 1024.7 |
| 20260509034524 | 65 | 292 | 0.0 | 5.0 | 0.00 | 0.00 | 0.00 | 51 | 1024.8 |
| 20260509033018 | 64 | 50 | 0.0 | 1.0 | 0.00 | 0.00 | 0.00 | 52 | 1024.8 |
| 20260509031514 | 63 | 293 | 0.0 | 5.0 | 0.00 | 0.00 | 0.00 | 53 | 1024.9 |
| 20260509030012 | 62 | 102 | 0.0 | 7.0 | 0.00 | 0.00 | 0.00 | 54 | 1025.2 |
| 20260509024509 | 62 | 69 | 1.0 | 9.0 | 0.00 | 0.00 | 0.00 | 56 | 1025.4 |
| 20260509023007 | 62 | 57 | 1.0 | 5.0 | 0.00 | 0.00 | 0.00 | 58 | 1025.6 |
| 20260509021504 | 60 | 168 | 1.0 | 5.0 | 0.00 | 0.00 | 0.00 | 57 | 1025.8 |
| 20260509020004 | 60 | 171 | 4.0 | 8.0 | 0.00 | 0.00 | 0.00 | 57 | 1026.2 |
| 20260509014502 | 60 | 113 | 3.0 | 12.0 | 0.00 | 0.00 | 0.00 | 59 | 1026.4 |
| 20260509013109 | 59 | 110 | 2.0 | 12.0 | 0.00 | 0.00 | 0.00 | 60 | 1026.6 |
| 20260509011556 | 58 | 83 | 3.0 | 7.0 | 0.00 | 0.00 | 0.00 | 63 | 1026.7 |
| 20260509010054 | 58 | 67 | 2.0 | 8.0 | 0.00 | 0.00 | 0.00 | 63 | 1026.9 |
| 20260509004553 | 57 | 62 | 6.0 | 10.0 | 0.00 | 0.00 | 0.00 | 65 | 1027.2 |
| 20260509003048 | 56 | 70 | 3.0 | 11.0 | 0.00 | 0.00 | 0.00 | 67 | 1027.4 |
| 20260509001545 | 55 | 103 | 4.0 | 13.0 | 0.00 | 0.00 | 0.00 | 67 | 1027.5 |
| 20260509000040 | 53 | 103 | 6.0 | 11.0 | 0.00 | 0.00 | 0.00 | 67 | 1027.6 |
| 20260508234536 | 51 | 79 | 4.0 | 11.0 | 0.00 | 0.00 | 0.00 | 75 | 1027.8 |
| 20260508233042 | 48 | 105 | 6.0 | 10.0 | 0.00 | 0.00 | 0.00 | 86 | 1027.8 |
| 20260508231528 | 44 | 108 | 4.0 | 9.0 | 0.00 | 0.00 | 0.00 | 93 | 1027.9 |
| 20260508230023 | 40 | 76 | 0.0 | 1.0 | 0.00 | 0.00 | 0.00 | 93 | 1028.1 |
| 20260508224518 | 36 | 198 | 0.0 | 0.0 | 0.00 | 0.00 | 0.00 | 93 | 1028.0 |
| 20260508223022 | 33 | 197 | 0.0 | 0.0 | 0.00 | 0.00 | 0.00 | 93 | 1027.9 |
| 20260508221509 | 31 | 197 | 0.0 | 0.0 | 0.00 | 0.00 | 0.00 | 92 | 1027.9 |
| 20260508220005 | 28 | 197 | 0.0 | 2.0 | 0.00 | 0.00 | 0.00 | 90 | 1027.9 |
| 20260508214503 | 27 | 197 | 0.0 | 0.0 | 0.00 | 0.00 | 0.00 | 88 | 1027.7 |
| 20260508213101 | 26 | 197 | 0.0 | 0.0 | 0.00 | 0.00 | 0.00 | 87 | 1027.4 |
| 20260508211602 | 24 | 197 | 0.0 | 0.0 | 0.00 | 0.00 | 0.00 | 85 | 1027.2 |
| 20260508210056 | 24 | 197 | 0.0 | 0.0 | 0.00 | 0.00 | 0.00 | 86 | 1026.9 |
| 20260508204555 | 24 | 197 | 0.0 | 0.0 | 0.00 | 0.00 | 0.00 | 85 | 1026.6 |
| 20260508203055 | 24 | 197 | 0.0 | 0.0 | 0.00 | 0.00 | 0.00 | 85 | 1026.3 |
| 20260508201548 | 24 | 197 | 0.0 | 0.0 | 0.00 | 0.00 | 0.00 | 85 | 1026.0 |
| 20260508200052 | 24 | 197 | 0.0 | 0.0 | 0.00 | 0.00 | 0.00 | 85 | 1025.9 |
| 20260508194541 | 24 | 197 | 0.0 | 0.0 | 0.00 | 0.00 | 0.00 | 85 | 1025.7 |
| 20260508193042 | 25 | 197 | 0.0 | 0.0 | 0.00 | 0.00 | 0.00 | 85 | 1025.5 |
| 20260508191541 | 25 | 197 | 0.0 | 0.0 | 0.00 | 0.00 | 0.00 | 86 | 1025.3 |
| 20260508190035 | 25 | 197 | 0.0 | 0.0 | 0.00 | 0.00 | 0.00 | 86 | 1025.2 |
| 20260508184534 | 25 | 197 | 0.0 | 0.0 | 0.00 | 0.00 | 0.00 | 86 | 1025.0 |
| 20260508183031 | 25 | 197 | 0.0 | 0.0 | 0.00 | 0.00 | 0.00 | 86 | 1025.1 |
| 20260508181531 | 25 | 197 | 0.0 | 0.0 | 0.00 | 0.00 | 0.00 | 86 | 1025.0 |
| 20260508180028 | 25 | 197 | 0.0 | 0.0 | 0.00 | 0.00 | 0.00 | 86 | 1025.0 |